ENCN/KRS METAR and TAF weather

Enter ICAO airport designator
Station Type Date Time Source
ENCN METAR 2018/09/20 18:20 UTC NOAA

ENCN 201820Z 23007KT 9999 FEW020 SCT160 13/08 Q1006


Station Type Date Time Source
ENCN Decoded METAR 2018/09/20 18:20 UTC NOAA

Kristiansand / Kjevik, Norway (ENCN) 58-12N 008-05E 17M
Sep 20, 2018 - 02:20 PM EDT / 2018.09.20 1820 UTC
Wind: from the SW (230 degrees) at 8 MPH (7 KT):0
Visibility: greater than 7 mile(s):0
Sky conditions: partly cloudy
Temperature: 55 F (13 C)
Dew Point: 46 F (8 C)
Relative Humidity: 71%
Pressure (altimeter): 29.71 in. Hg (1006 hPa)
ob: ENCN 201820Z 23007KT 9999 FEW020 SCT160 13/08 Q1006
cycle: 18

Station Type Date Time Source
ENCN TAF 2016/05/06 12:39 UTC NOAA

TAF TAF ENCN 061100Z 0612/0712 14008KT 9999 FEW040


Example: see airport list